Angarsk, Russia
Current Conditions -  °F | °C
As of 12:00 PM on Monday 20 Oct 2014 (Local Time) from UIII Reporting Station
Clear Clear  
Wind Chill: 25°   Ceiling: Unl
Heat Index: 25°   Visibility: 6mi
Dew Point:   Wind: 2mph
Humidity: 50%   Direction: NA
Pressure: 30.3"   Gusts: NA
Location:  52.57°N, 103.91°E
Report Text: UIII 200400Z VRB01MPS CAVOK M04/M13 Q1026 NOSIG RMK QFE727/096912CLRD60
Loading
Personal Weather Stations






























Interactive Weather Map
Tropical Storm Tracking
New forecast layout! Learn more

10-Day Weather Forecast

Advertisements
Track Severe Weather on mobile